createdAt,value
2023-05-11T00:00:50.138Z,13.82
2023-05-11T00:03:19.127Z,18.70
2023-05-11T00:05:49.400Z,17.67
2023-05-11T00:08:17.368Z,17.38
2023-05-11T00:10:47.667Z,12.82
2023-05-11T00:13:16.511Z,14.55
2023-05-11T00:15:45.530Z,13.98
2023-05-11T00:18:16.911Z,13.25
2023-05-11T00:20:45.776Z,15.90
2023-05-11T00:23:12.254Z,15.32
2023-05-11T00:25:39.186Z,19.00
2023-05-11T00:28:07.139Z,17.60
2023-05-11T00:30:33.811Z,19.15
2023-05-11T00:33:00.547Z,24.17
2023-05-11T00:35:27.451Z,17.83
2023-05-11T00:38:01.601Z,17.90
2023-05-11T00:40:49.218Z,19.75
2023-05-11T00:43:20.559Z,17.13
2023-05-11T00:45:48.332Z,18.10
2023-05-11T00:48:19.610Z,19.80
2023-05-11T00:50:46.346Z,22.25
2023-05-11T00:53:13.885Z,18.15
2023-05-11T00:55:42.708Z,20.88
2023-05-11T00:58:09.193Z,18.67
2023-05-11T01:00:36.884Z,18.92
2023-05-11T01:03:07.300Z,17.38
2023-05-11T01:05:52.791Z,15.43
2023-05-11T01:08:39.083Z,19.33
2023-05-11T01:11:15.292Z,20.33
2023-05-11T01:13:55.798Z,17.77
2023-05-11T01:16:27.157Z,20.23
2023-05-11T01:19:08.666Z,20.92
2023-05-11T01:21:42.428Z,18.13
2023-05-11T01:24:43.582Z,20.55
2023-05-11T01:27:32.142Z,18.30
2023-05-11T01:30:37.127Z,16.30
2023-05-11T01:33:12.276Z,18.23
2023-05-11T01:35:46.280Z,20.27
2023-05-11T01:38:18.054Z,16.58
2023-05-11T01:40:47.606Z,18.00
2023-05-11T01:43:20.662Z,15.00
2023-05-11T01:45:51.156Z,17.27
2023-05-11T01:48:24.816Z,19.80
2023-05-11T01:50:55.067Z,19.05
2023-05-11T01:53:23.296Z,17.73
2023-05-11T01:55:51.229Z,18.17
2023-05-11T02:03:14.235Z,11.55
2023-05-11T02:08:09.346Z,16.88
2023-05-11T02:10:38.730Z,16.42
2023-05-11T02:13:09.936Z,14.63
2023-05-11T02:15:45.197Z,15.93
2023-05-11T02:18:16.359Z,16.33
2023-05-11T02:20:45.389Z,16.73
2023-05-11T02:23:15.738Z,22.15
2023-05-11T02:25:43.258Z,23.40
2023-05-11T02:28:12.658Z,18.17
2023-05-11T02:30:50.229Z,17.80
2023-05-11T02:33:29.364Z,21.13
2023-05-11T02:36:00.393Z,18.92
2023-05-11T02:38:32.579Z,20.83
2023-05-11T02:41:04.681Z,21.23
2023-05-11T02:43:37.672Z,16.67
2023-05-11T02:46:14.365Z,15.55
2023-05-11T02:48:45.528Z,19.48
2023-05-11T02:51:14.269Z,18.92
2023-05-11T02:53:42.871Z,15.55
2023-05-11T02:56:14.644Z,21.23
2023-05-11T02:58:41.364Z,21.83
2023-05-11T03:01:08.180Z,20.60
2023-05-11T03:03:39.833Z,21.20
2023-05-11T03:06:07.976Z,21.77
2023-05-11T03:11:07.817Z,22.25
2023-05-11T03:13:37.440Z,21.17
2023-05-11T03:16:05.668Z,21.08
2023-05-11T03:18:35.632Z,18.48
2023-05-11T03:21:05.769Z,20.88
2023-05-11T03:23:34.319Z,23.65
2023-05-11T03:26:12.279Z,26.13
2023-05-11T03:28:40.670Z,22.45
2023-05-11T03:31:07.324Z,24.88
2023-05-11T03:33:34.005Z,25.30
2023-05-11T03:36:05.002Z,29.40
2023-05-11T03:38:36.365Z,26.25
2023-05-11T03:41:05.607Z,23.77
2023-05-11T03:43:35.168Z,22.92
2023-05-11T03:46:03.974Z,23.35
2023-05-11T03:48:32.530Z,20.13
2023-05-11T03:51:04.194Z,21.65
2023-05-11T03:53:31.373Z,21.27
2023-05-11T03:56:01.663Z,20.88
2023-05-11T03:58:28.674Z,22.90
2023-05-11T04:00:55.454Z,20.65
2023-05-11T04:03:22.440Z,20.58
2023-05-11T04:05:49.616Z,19.13
2023-05-11T04:08:18.585Z,24.65
2023-05-11T04:10:45.184Z,22.83
2023-05-11T04:13:14.001Z,28.42
2023-05-11T04:15:40.779Z,27.55
2023-05-11T04:18:07.547Z,23.20
2023-05-11T04:20:34.125Z,27.15
2023-05-11T04:23:03.808Z,24.55
2023-05-11T04:25:30.415Z,25.80
2023-05-11T04:27:57.080Z,28.90
2023-05-11T04:30:26.766Z,25.30
2023-05-11T04:32:53.651Z,28.77
2023-05-11T04:35:22.253Z,27.38
2023-05-11T04:37:51.305Z,23.10
2023-05-11T04:40:20.204Z,30.95
2023-05-11T04:42:46.975Z,25.42
2023-05-11T04:45:15.774Z,22.33
2023-05-11T04:47:44.698Z,21.23
2023-05-11T04:50:12.106Z,22.58
2023-05-11T04:52:41.150Z,22.60
2023-05-11T04:55:11.059Z,23.20
2023-05-11T04:57:38.790Z,26.98
2023-05-11T05:00:10.031Z,22.90
2023-05-11T05:02:36.621Z,25.77
2023-05-11T05:05:03.401Z,24.02
2023-05-11T05:07:29.949Z,23.05
2023-05-11T05:09:58.717Z,23.90
2023-05-11T05:12:30.147Z,23.83
2023-05-11T05:14:56.608Z,27.25
2023-05-11T05:17:23.284Z,26.02
2023-05-11T05:19:49.747Z,28.35
2023-05-11T05:22:16.577Z,23.67
2023-05-11T05:24:45.348Z,27.27
2023-05-11T05:27:12.206Z,20.10
2023-05-11T05:29:38.657Z,21.08
2023-05-11T05:32:05.333Z,20.30
2023-05-11T05:34:32.128Z,26.73
2023-05-11T05:36:58.621Z,21.67
2023-05-11T05:39:25.169Z,23.17
2023-05-11T05:41:52.365Z,26.45
2023-05-11T05:44:18.920Z,32.03
2023-05-11T05:46:48.015Z,18.92
2023-05-11T05:49:14.850Z,11.98
2023-05-11T05:51:43.708Z,11.35
2023-05-11T05:54:12.394Z,11.23
2023-05-11T05:56:40.823Z,9.57
2023-05-11T05:59:08.951Z,9.05
2023-05-11T06:01:36.072Z,12.48
2023-05-11T06:04:05.121Z,11.47
2023-05-11T06:06:34.022Z,10.05
2023-05-11T06:09:00.655Z,13.23
2023-05-11T06:11:27.409Z,9.13
2023-05-11T06:13:57.898Z,9.90
2023-05-11T06:16:25.463Z,17.55
2023-05-11T06:18:52.659Z,11.50
2023-05-11T06:21:19.387Z,12.05
2023-05-11T06:23:48.403Z,12.55
2023-05-11T06:26:14.919Z,13.52
2023-05-11T06:28:41.414Z,12.45
2023-05-11T06:31:08.104Z,13.82
2023-05-11T06:33:35.566Z,11.05
2023-05-11T06:36:06.384Z,14.70
2023-05-11T06:38:37.705Z,14.75
2023-05-11T06:41:04.291Z,10.52
2023-05-11T06:43:30.988Z,13.07
2023-05-11T06:45:59.786Z,12.40
2023-05-11T06:48:31.048Z,12.50
2023-05-11T06:51:00.128Z,14.70
2023-05-11T06:53:26.662Z,14.25
2023-05-11T06:55:55.130Z,10.68
2023-05-11T06:58:21.652Z,13.15
2023-05-11T07:00:48.182Z,18.00
2023-05-11T07:03:15.889Z,20.42
2023-05-11T07:05:47.332Z,20.38
2023-05-11T07:08:14.136Z,17.67
2023-05-11T07:10:41.944Z,20.52
2023-05-11T07:13:08.472Z,22.20
2023-05-11T07:15:35.016Z,23.23
2023-05-11T07:18:03.889Z,18.20
2023-05-11T07:20:30.870Z,24.35
2023-05-11T07:23:00.590Z,20.27
2023-05-11T07:25:29.376Z,21.92
2023-05-11T07:27:58.173Z,23.40
2023-05-11T07:30:27.735Z,23.88
2023-05-11T07:32:57.300Z,23.73
2023-05-11T07:35:29.198Z,26.48
2023-05-11T07:37:58.015Z,22.35
2023-05-11T07:40:27.918Z,25.25
2023-05-11T07:42:54.983Z,25.48
2023-05-11T07:45:25.533Z,27.13
2023-05-11T07:47:54.353Z,21.70
2023-05-11T07:50:24.617Z,16.05
2023-05-11T07:52:51.750Z,16.40
2023-05-11T07:55:24.909Z,16.92
2023-05-11T07:57:53.448Z,17.13
2023-05-11T08:00:21.118Z,15.20
2023-05-11T08:05:17.983Z,12.00
2023-05-11T08:07:45.039Z,12.55
2023-05-11T08:10:13.976Z,10.85
2023-05-11T08:12:42.822Z,11.68
2023-05-11T08:15:10.921Z,9.77
2023-05-11T08:17:37.595Z,12.70
2023-05-11T08:20:06.531Z,9.30
2023-05-11T08:22:35.352Z,8.60
2023-05-11T08:27:31.085Z,12.18
2023-05-11T08:29:58.323Z,16.15
2023-05-11T08:32:38.231Z,13.05
2023-05-11T08:35:16.406Z,13.70
2023-05-11T08:37:43.096Z,14.35
2023-05-11T08:40:17.433Z,14.90
2023-05-11T08:42:46.684Z,17.17
2023-05-11T08:45:17.899Z,16.13
2023-05-11T08:47:45.659Z,17.02
2023-05-11T08:52:39.160Z,16.38
2023-05-11T08:55:06.579Z,15.90
2023-05-11T08:57:40.954Z,18.27
2023-05-11T09:00:08.938Z,17.85
2023-05-11T09:02:36.021Z,20.13
2023-05-11T09:05:04.493Z,16.98
2023-05-11T09:07:40.243Z,16.50
2023-05-11T09:10:08.021Z,17.27
2023-05-11T09:12:37.254Z,17.55
2023-05-11T09:15:04.130Z,17.05
2023-05-11T09:17:32.978Z,19.30
2023-05-11T09:20:07.726Z,16.35
2023-05-11T09:22:36.666Z,17.52
2023-05-11T09:25:04.006Z,20.75
2023-05-11T09:27:32.792Z,14.98
2023-05-11T09:30:22.942Z,15.95
2023-05-11T09:32:56.634Z,15.63
2023-05-11T09:35:25.303Z,18.98
2023-05-11T09:38:07.858Z,15.77
2023-05-11T09:40:40.130Z,18.73
2023-05-11T09:43:16.846Z,15.23
2023-05-11T09:45:47.541Z,16.48
2023-05-11T09:48:19.687Z,16.70
2023-05-11T09:50:50.552Z,16.20
2023-05-11T09:53:17.859Z,13.23
2023-05-11T09:55:55.530Z,15.50
2023-05-11T09:58:24.854Z,15.15
2023-05-11T10:00:56.069Z,15.13
2023-05-11T10:03:29.562Z,14.70
2023-05-11T10:06:00.977Z,16.70
2023-05-11T10:08:30.368Z,21.13
2023-05-11T10:11:01.502Z,23.45
2023-05-11T10:13:29.537Z,22.48
2023-05-11T10:15:59.202Z,24.08
2023-05-11T10:18:26.581Z,26.60
2023-05-11T10:20:54.301Z,24.13
2023-05-11T10:25:53.865Z,27.05
2023-05-11T10:28:21.196Z,18.50
2023-05-11T10:30:50.468Z,18.95
2023-05-11T10:33:17.693Z,19.27
2023-05-11T10:35:46.750Z,15.77
2023-05-11T10:38:15.116Z,13.38
2023-05-11T10:40:45.523Z,11.65
2023-05-11T10:43:43.458Z,12.88
2023-05-11T10:46:28.176Z,10.43
2023-05-11T10:49:03.017Z,11.05
2023-05-11T10:51:53.186Z,9.32
2023-05-11T10:54:44.688Z,9.77
2023-05-11T10:57:32.159Z,10.00
2023-05-11T11:00:14.320Z,10.73
2023-05-11T11:02:45.477Z,10.57
2023-05-11T11:05:17.795Z,10.48
2023-05-11T11:08:04.194Z,12.23
2023-05-11T11:10:41.293Z,11.63
2023-05-11T11:13:09.739Z,11.55
2023-05-11T11:15:57.878Z,9.23
2023-05-11T11:18:34.875Z,7.60
2023-05-11T11:21:04.592Z,6.97
2023-05-11T11:23:42.907Z,8.27
2023-05-11T11:26:15.606Z,9.93
2023-05-11T11:28:54.535Z,8.20
2023-05-11T11:31:36.140Z,8.30
2023-05-11T11:34:41.324Z,5.57
2023-05-11T11:37:10.642Z,10.95
2023-05-11T11:39:43.233Z,5.85
2023-05-11T11:42:12.297Z,6.43
2023-05-11T11:44:40.089Z,5.05
2023-05-11T11:49:41.387Z,5.25
2023-05-11T11:52:31.392Z,4.40
2023-05-11T11:55:02.402Z,3.25
2023-05-11T11:57:34.950Z,3.50
2023-05-11T12:00:11.867Z,2.97
2023-05-11T12:02:42.410Z,3.13
2023-05-11T12:05:22.320Z,3.05
2023-05-11T12:07:53.328Z,4.03
2023-05-11T12:10:23.325Z,7.90
2023-05-11T12:12:51.884Z,5.05
2023-05-11T12:15:32.268Z,7.32
2023-05-11T12:18:00.079Z,5.97
2023-05-11T12:22:56.984Z,7.53
2023-05-11T12:25:25.749Z,8.13
2023-05-11T12:28:03.035Z,8.00
2023-05-11T12:30:32.343Z,9.15
2023-05-11T12:33:04.575Z,8.40
2023-05-11T12:35:33.739Z,6.40
2023-05-11T12:38:02.491Z,9.40
2023-05-11T12:40:31.832Z,6.78
2023-05-11T12:43:01.722Z,7.13
2023-05-11T12:45:29.227Z,7.53
2023-05-11T12:47:57.237Z,6.82
2023-05-11T12:50:27.985Z,6.25
2023-05-11T12:52:54.626Z,6.28
2023-05-11T12:55:34.882Z,9.50
2023-05-11T12:58:18.817Z,5.35
2023-05-11T13:01:00.909Z,4.80
2023-05-11T13:03:30.574Z,2.72
2023-05-11T13:06:10.795Z,3.40
2023-05-11T13:08:45.540Z,2.72
2023-05-11T13:11:19.165Z,3.05
2023-05-11T13:13:48.044Z,2.42
2023-05-11T13:16:33.919Z,4.38
2023-05-11T13:19:10.114Z,3.63
2023-05-11T13:21:36.673Z,2.60
2023-05-11T13:24:05.611Z,4.25
2023-05-11T13:26:34.884Z,3.85
2023-05-11T13:29:10.897Z,3.33
2023-05-11T13:31:54.828Z,3.47
2023-05-11T13:34:21.784Z,5.38
2023-05-11T13:36:51.110Z,3.03
2023-05-11T13:39:17.794Z,3.88
2023-05-11T13:41:46.518Z,2.47
2023-05-11T13:44:13.126Z,3.70
2023-05-11T13:46:39.743Z,2.72
2023-05-11T13:49:08.688Z,2.33
2023-05-11T13:51:37.489Z,1.85
2023-05-11T13:54:04.205Z,2.20
2023-05-11T13:56:33.299Z,1.67
2023-05-11T13:59:00.221Z,2.25
2023-05-11T14:01:27.567Z,1.30
2023-05-11T14:03:54.809Z,2.05
2023-05-11T14:06:26.072Z,2.33
2023-05-11T14:08:53.930Z,1.17
2023-05-11T14:13:50.142Z,1.38
2023-05-11T14:16:17.385Z,0.80
2023-05-11T14:18:44.532Z,0.70
2023-05-11T14:21:13.913Z,1.40
2023-05-11T14:24:01.899Z,3.92
2023-05-11T14:26:33.713Z,1.40
2023-05-11T14:29:05.027Z,1.75
2023-05-11T14:31:32.041Z,1.75
2023-05-11T14:34:01.670Z,2.13
2023-05-11T14:36:34.064Z,2.92
2023-05-11T14:39:00.688Z,4.80
2023-05-11T14:41:32.100Z,3.80
2023-05-11T14:43:58.712Z,2.75
2023-05-11T14:46:27.672Z,3.10
2023-05-11T14:48:59.245Z,5.50
2023-05-11T14:51:25.943Z,2.63
2023-05-11T14:53:52.692Z,3.67
2023-05-11T14:56:19.597Z,3.88
2023-05-11T14:58:46.931Z,2.70
2023-05-11T15:01:13.447Z,3.60
2023-05-11T15:03:42.753Z,3.50
2023-05-11T15:06:09.229Z,2.97
2023-05-11T15:08:35.789Z,5.22
2023-05-11T15:11:02.338Z,3.28
2023-05-11T15:13:31.321Z,3.30
2023-05-11T15:15:58.259Z,2.95
2023-05-11T15:18:24.895Z,3.28
2023-05-11T15:20:55.454Z,4.40
2023-05-11T15:23:21.986Z,4.18
2023-05-11T15:25:51.000Z,2.50
2023-05-11T15:28:22.160Z,3.45
2023-05-11T15:30:48.807Z,2.55
2023-05-11T15:33:16.417Z,2.55
2023-05-11T15:38:12.138Z,2.00
2023-05-11T15:40:43.606Z,2.13
2023-05-11T15:43:15.080Z,2.15
2023-05-11T15:45:41.774Z,2.28
2023-05-11T15:48:10.965Z,2.45
2023-05-11T15:50:37.847Z,4.90
2023-05-11T15:53:04.382Z,3.60
2023-05-11T15:55:30.888Z,2.53
2023-05-11T15:57:57.833Z,3.50
2023-05-11T16:00:24.486Z,1.77
2023-05-11T16:02:51.433Z,3.25
2023-05-11T16:05:20.457Z,1.88
2023-05-11T16:07:46.927Z,2.40
2023-05-11T16:10:13.474Z,2.85
2023-05-11T16:12:42.314Z,2.35
2023-05-11T16:15:09.127Z,2.00
2023-05-11T16:17:35.737Z,2.33
2023-05-11T16:20:03.467Z,2.40
2023-05-11T16:27:24.359Z,2.10
2023-05-11T16:29:52.287Z,2.42
2023-05-11T16:32:21.270Z,2.60
2023-05-11T16:34:47.757Z,1.80
2023-05-11T16:37:14.259Z,3.88
2023-05-11T16:39:43.603Z,2.78
2023-05-11T16:42:10.549Z,2.53
2023-05-11T16:44:39.579Z,2.60
2023-05-11T16:47:06.328Z,1.92
2023-05-11T16:49:35.437Z,2.00
2023-05-11T16:52:01.965Z,1.95
2023-05-11T16:54:29.122Z,2.20
2023-05-11T16:56:58.451Z,2.45
2023-05-11T16:59:25.040Z,4.32
2023-05-11T17:01:51.538Z,3.63
2023-05-11T17:04:18.256Z,2.05
2023-05-11T17:06:44.900Z,1.35
2023-05-11T17:09:16.773Z,1.63
2023-05-11T17:11:43.276Z,1.80
2023-05-11T17:14:09.801Z,1.35
2023-05-11T17:16:36.411Z,1.33
2023-05-11T17:19:03.428Z,3.65
2023-05-11T17:21:32.459Z,2.53
2023-05-11T17:24:01.310Z,1.55
2023-05-11T17:26:39.565Z,1.20
2023-05-11T17:29:15.642Z,0.82
2023-05-11T17:31:49.374Z,1.85
2023-05-11T17:34:18.654Z,1.48
2023-05-11T17:36:45.312Z,3.67
2023-05-11T17:39:12.754Z,4.85
2023-05-11T17:41:39.493Z,3.22
2023-05-11T17:44:08.245Z,1.10
2023-05-11T17:46:35.903Z,1.40
2023-05-11T17:49:06.032Z,1.65
2023-05-11T17:51:32.954Z,2.33
2023-05-11T17:53:59.566Z,1.73
2023-05-11T17:56:29.148Z,1.17
2023-05-11T17:58:56.189Z,1.05
2023-05-11T18:01:22.947Z,2.83
2023-05-11T18:03:49.791Z,1.67
2023-05-11T18:06:16.872Z,1.40
2023-05-11T18:08:43.904Z,1.87
2023-05-11T18:11:12.779Z,1.43
2023-05-11T18:13:39.637Z,1.85
2023-05-11T18:16:07.110Z,3.35
2023-05-11T18:18:34.180Z,1.90
2023-05-11T18:21:05.567Z,2.65
2023-05-11T18:23:32.456Z,3.42
2023-05-11T18:25:58.981Z,2.42
2023-05-11T18:28:30.004Z,3.15
2023-05-11T18:30:57.312Z,4.75
2023-05-11T18:33:30.795Z,5.28
2023-05-11T18:35:59.555Z,7.10
2023-05-11T18:38:28.477Z,4.15
2023-05-11T18:40:56.345Z,6.68
2023-05-11T18:45:50.392Z,4.97
2023-05-11T18:48:20.439Z,4.55
2023-05-11T18:50:55.164Z,4.40
2023-05-11T18:53:26.673Z,7.97
2023-05-11T18:55:53.936Z,5.93
2023-05-11T18:58:21.340Z,4.85
2023-05-11T19:00:49.203Z,5.18
2023-05-11T19:03:17.776Z,6.45
2023-05-11T19:05:48.143Z,5.22
2023-05-11T19:08:17.141Z,5.35
2023-05-11T19:10:47.911Z,5.70
2023-05-11T19:13:14.548Z,5.43
2023-05-11T19:15:45.766Z,4.78
2023-05-11T19:18:12.292Z,5.20
2023-05-11T19:20:41.288Z,5.65
2023-05-11T19:23:10.022Z,5.82
2023-05-11T19:25:38.827Z,5.22
2023-05-11T19:28:05.542Z,4.68
2023-05-11T19:30:34.545Z,6.90
2023-05-11T19:33:01.201Z,5.28
2023-05-11T19:35:32.377Z,5.38
2023-05-11T19:37:58.919Z,4.65
2023-05-11T19:43:03.349Z,6.63
2023-05-11T19:45:33.260Z,5.97
2023-05-11T19:48:00.302Z,5.57
2023-05-11T19:50:29.128Z,7.20
2023-05-11T19:52:55.798Z,5.82
2023-05-11T19:55:22.357Z,5.75
2023-05-11T19:57:48.870Z,7.22
2023-05-11T20:00:20.557Z,13.00
2023-05-11T20:02:47.420Z,10.32
2023-05-11T20:05:14.199Z,8.82
2023-05-11T20:07:43.142Z,6.90
2023-05-11T20:10:09.902Z,8.75
2023-05-11T20:12:41.144Z,6.97
2023-05-11T20:15:08.939Z,5.88
2023-05-11T20:17:36.120Z,8.40
2023-05-11T20:20:03.065Z,6.97
2023-05-11T20:22:32.387Z,5.28
2023-05-11T20:25:01.260Z,8.70
2023-05-11T20:27:27.762Z,6.50
2023-05-11T20:29:57.086Z,12.77
2023-05-11T20:32:24.058Z,6.50
2023-05-11T20:34:51.642Z,6.45
2023-05-11T20:37:22.944Z,6.57
2023-05-11T20:39:54.918Z,5.10
2023-05-11T20:42:21.368Z,5.90
2023-05-11T20:44:54.635Z,8.05
2023-05-11T20:47:21.967Z,5.65
2023-05-11T20:49:49.998Z,8.07
2023-05-11T20:52:17.802Z,8.43
2023-05-11T20:54:44.722Z,4.53
2023-05-11T20:57:11.278Z,4.70
2023-05-11T21:02:07.220Z,8.43
2023-05-11T21:04:38.977Z,7.07
2023-05-11T21:07:06.379Z,6.25
2023-05-11T21:09:32.901Z,5.38
2023-05-11T21:12:01.912Z,5.95
2023-05-11T21:14:31.160Z,6.25
2023-05-11T21:16:57.657Z,7.03
2023-05-11T21:19:28.967Z,5.55
2023-05-11T21:21:55.465Z,6.20
2023-05-11T21:24:24.697Z,4.22
2023-05-11T21:26:51.216Z,6.13
2023-05-11T21:29:20.064Z,5.88
2023-05-11T21:31:46.999Z,5.28
2023-05-11T21:34:16.882Z,5.25
2023-05-11T21:36:46.118Z,4.47
2023-05-11T21:39:15.806Z,4.97
2023-05-11T21:41:42.517Z,6.72
2023-05-11T21:44:09.138Z,6.50
2023-05-11T21:46:35.700Z,7.50
2023-05-11T21:49:06.727Z,4.95
2023-05-11T21:51:33.725Z,4.05
2023-05-11T21:54:00.274Z,3.93
2023-05-11T21:56:31.420Z,4.50
2023-05-11T21:59:00.205Z,5.45
2023-05-11T22:01:26.722Z,5.30
2023-05-11T22:03:53.578Z,5.50
2023-05-11T22:06:20.250Z,5.43
2023-05-11T22:08:49.042Z,4.55
2023-05-11T22:11:15.545Z,4.50
2023-05-11T22:13:42.804Z,9.93
2023-05-11T22:16:14.121Z,5.30
2023-05-11T22:18:40.948Z,6.90
2023-05-11T22:21:09.744Z,5.45
2023-05-11T22:23:36.515Z,9.18
2023-05-11T22:26:05.805Z,6.28
2023-05-11T22:28:34.510Z,5.72
2023-05-11T22:31:03.547Z,7.63
2023-05-11T22:33:30.054Z,7.10
2023-05-11T22:35:59.029Z,6.72
2023-05-11T22:38:28.033Z,7.63
2023-05-11T22:40:54.575Z,6.15
2023-05-11T22:43:23.563Z,5.15
2023-05-11T22:45:52.550Z,5.03
2023-05-11T22:48:21.910Z,6.38
2023-05-11T22:50:48.505Z,6.32
2023-05-11T22:53:19.390Z,5.60
2023-05-11T22:55:45.873Z,4.50
2023-05-11T22:58:14.805Z,6.20
2023-05-11T23:00:43.754Z,5.68
2023-05-11T23:03:10.534Z,5.35
2023-05-11T23:05:37.380Z,5.38
2023-05-11T23:08:04.084Z,5.90
2023-05-11T23:10:30.595Z,7.97
2023-05-11T23:12:57.111Z,6.65
2023-05-11T23:15:24.373Z,4.30
2023-05-11T23:17:54.267Z,4.82
2023-05-11T23:20:24.063Z,5.07
2023-05-11T23:22:50.831Z,6.47
2023-05-11T23:25:17.510Z,4.53
2023-05-11T23:27:48.629Z,6.38
2023-05-11T23:30:15.514Z,6.60
2023-05-11T23:32:44.550Z,6.03
2023-05-11T23:35:13.537Z,4.47
2023-05-11T23:37:42.182Z,5.53
2023-05-11T23:40:09.646Z,7.15
2023-05-11T23:42:39.095Z,5.43
2023-05-11T23:45:07.972Z,5.90
2023-05-11T23:47:34.951Z,5.22
2023-05-11T23:50:01.678Z,4.60
2023-05-11T23:52:28.213Z,5.40
2023-05-11T23:54:59.569Z,5.35
2023-05-11T23:57:30.850Z,10.10
2023-05-11T23:59:57.430Z,6.78
